createdAt,value
2023-06-30T00:03:16.809Z,951.5
2023-06-30T00:08:18.311Z,951.51
2023-06-30T00:13:20.226Z,951.46
2023-06-30T00:18:21.554Z,951.38
2023-06-30T00:23:23.290Z,951.35
2023-06-30T00:28:25.009Z,951.31
2023-06-30T00:33:27.020Z,951.32
2023-06-30T00:38:28.327Z,951.25
2023-06-30T00:43:29.973Z,951.17
2023-06-30T00:48:31.846Z,951.08
2023-06-30T00:53:33.659Z,950.99
2023-06-30T00:58:35.259Z,950.92
2023-06-30T01:03:37.206Z,950.77
2023-06-30T01:08:38.608Z,950.74
2023-06-30T01:13:40.567Z,950.66
2023-06-30T01:18:42.277Z,950.66
2023-06-30T01:23:43.694Z,950.65
2023-06-30T01:28:45.297Z,950.55
2023-06-30T01:33:47.441Z,950.58
2023-06-30T01:38:55.771Z,950.61
2023-06-30T01:43:57.921Z,950.54
2023-06-30T01:48:59.126Z,950.55
2023-06-30T01:54:00.607Z,950.58
2023-06-30T01:59:02.486Z,950.57
2023-06-30T02:04:04.438Z,950.54
2023-06-30T02:09:06.006Z,950.56
2023-06-30T02:14:07.789Z,950.61
2023-06-30T02:19:09.700Z,950.53
2023-06-30T02:24:11.335Z,950.5
2023-06-30T02:29:13.197Z,950.64
2023-06-30T02:34:14.558Z,950.6
2023-06-30T02:39:16.758Z,950.63
2023-06-30T02:44:17.997Z,950.62
2023-06-30T02:49:19.434Z,950.6
2023-06-30T02:54:21.486Z,950.6
2023-06-30T02:59:23.155Z,950.52
2023-06-30T03:04:24.590Z,950.51
2023-06-30T03:09:26.263Z,950.48
2023-06-30T03:14:28.269Z,950.45
2023-06-30T03:19:29.493Z,950.55
2023-06-30T03:24:30.722Z,950.5
2023-06-30T03:29:32.266Z,950.54
2023-06-30T03:34:33.882Z,950.64
2023-06-30T03:39:35.376Z,950.74
2023-06-30T03:44:36.650Z,950.76
2023-06-30T03:49:38.526Z,950.66
2023-06-30T03:54:39.796Z,950.63
2023-06-30T03:59:41.723Z,950.65
2023-06-30T04:04:43.756Z,950.63
2023-06-30T04:09:45.560Z,950.53
2023-06-30T04:14:47.165Z,950.48
2023-06-30T04:19:49.111Z,950.46
2023-06-30T04:24:50.587Z,950.42
2023-06-30T04:29:51.914Z,950.37
2023-06-30T04:34:53.448Z,950.28
2023-06-30T04:39:55.307Z,950.2
2023-06-30T04:44:57.393Z,950.09
2023-06-30T04:49:59.407Z,949.96
2023-06-30T04:55:01.172Z,949.85
2023-06-30T05:00:02.516Z,949.95
2023-06-30T05:05:04.536Z,950.09
2023-06-30T05:10:06.492Z,950.13
2023-06-30T05:15:08.210Z,950.2
2023-06-30T05:20:10.073Z,950.25
2023-06-30T05:25:11.539Z,950.37
2023-06-30T05:30:12.883Z,950.36
2023-06-30T05:35:14.208Z,950.34
2023-06-30T05:40:15.419Z,950.37
2023-06-30T05:45:16.752Z,950.28
2023-06-30T05:50:18.501Z,950.16
2023-06-30T05:55:20.598Z,950.25
2023-06-30T06:00:21.932Z,950.34
2023-06-30T06:05:23.954Z,950.39
2023-06-30T06:10:25.440Z,950.38
2023-06-30T06:15:27.067Z,950.39
2023-06-30T06:20:29.022Z,950.55
2023-06-30T06:25:30.332Z,950.46
2023-06-30T06:30:32.236Z,950.5
2023-06-30T06:35:33.599Z,950.57
2023-06-30T06:40:35.213Z,950.72
2023-06-30T06:45:37.221Z,950.61
2023-06-30T06:50:39.139Z,950.52
2023-06-30T06:55:40.812Z,950.49
2023-06-30T07:00:42.271Z,950.56
2023-06-30T07:05:44.059Z,950.61
2023-06-30T07:10:45.815Z,950.62
2023-06-30T07:15:48.050Z,950.64
2023-06-30T07:20:49.941Z,950.57
2023-06-30T07:25:51.204Z,950.62
2023-06-30T07:30:52.729Z,950.61
2023-06-30T07:35:54.666Z,950.64
2023-06-30T07:40:57.338Z,950.62
2023-06-30T07:45:57.854Z,950.62
2023-06-30T07:51:08.330Z,950.63
2023-06-30T07:56:00.942Z,950.61
2023-06-30T08:01:02.497Z,950.72
2023-06-30T08:06:09.089Z,950.74
2023-06-30T08:11:05.878Z,950.79
2023-06-30T08:16:07.691Z,950.82
2023-06-30T08:21:09.781Z,950.87
2023-06-30T08:26:11.688Z,950.94
2023-06-30T08:31:12.913Z,950.97
2023-06-30T08:36:14.532Z,951.01
2023-06-30T08:41:15.979Z,951.03
2023-06-30T08:46:17.864Z,951.11
2023-06-30T08:51:20.034Z,951.1
2023-06-30T08:56:21.268Z,951.1
2023-06-30T09:01:22.610Z,951.07
2023-06-30T09:06:24.017Z,951.09
2023-06-30T09:11:25.345Z,951.08
2023-06-30T09:16:27.421Z,951.01
2023-06-30T09:21:29.383Z,951
2023-06-30T09:26:32.401Z,951.04
2023-06-30T09:31:32.706Z,951.03
2023-06-30T09:36:34.495Z,951.07
2023-06-30T09:41:36.023Z,951.04
2023-06-30T09:46:37.954Z,950.97
2023-06-30T09:51:39.167Z,950.91
2023-06-30T09:56:41.020Z,950.91
2023-06-30T10:01:43.019Z,950.89
2023-06-30T10:06:44.312Z,950.87
2023-06-30T10:11:45.727Z,950.87
2023-06-30T10:16:47.177Z,950.86
2023-06-30T10:36:53.450Z,950.8
2023-06-30T12:12:24.146Z,950.11
2023-06-30T12:17:25.651Z,950.11
2023-06-30T12:47:35.638Z,949.76
2023-06-30T13:12:43.317Z,949.47
2023-06-30T13:27:48.340Z,949.33
2023-06-30T13:32:50.312Z,949.31
2023-06-30T13:37:51.589Z,949.27
2023-06-30T13:42:52.829Z,949.25
2023-06-30T13:47:54.254Z,949.22
2023-06-30T13:52:55.702Z,949.16
2023-06-30T13:57:57.367Z,949.13
2023-06-30T14:02:58.698Z,949.1
2023-06-30T14:08:00.738Z,949.05
2023-06-30T14:13:02.849Z,949
2023-06-30T14:18:04.933Z,949
2023-06-30T14:23:06.845Z,948.97
2023-06-30T14:28:08.618Z,948.96
2023-06-30T14:33:09.823Z,949.01
2023-06-30T14:38:11.529Z,949.02
2023-06-30T14:43:13.205Z,949.03
2023-06-30T14:48:15.047Z,948.94
2023-06-30T14:53:16.475Z,948.89
2023-06-30T14:58:18.525Z,948.9
2023-06-30T15:03:20.050Z,948.91
2023-06-30T15:08:21.813Z,949.02
2023-06-30T15:13:23.219Z,949.09
2023-06-30T15:18:24.823Z,948.95
2023-06-30T15:23:26.652Z,948.88
2023-06-30T15:28:28.152Z,948.85
2023-06-30T15:33:30.343Z,948.88
2023-06-30T15:38:31.805Z,948.89
2023-06-30T15:43:33.186Z,948.81
2023-06-30T15:48:35.124Z,948.76
2023-06-30T15:53:37.185Z,948.8
2023-06-30T15:58:39.028Z,948.92
2023-06-30T16:03:41.168Z,948.87
2023-06-30T16:08:42.844Z,948.84
2023-06-30T16:13:44.773Z,948.89
2023-06-30T16:18:45.989Z,948.84
2023-06-30T16:23:47.542Z,948.83
2023-06-30T16:28:49.641Z,948.8
2023-06-30T16:33:51.153Z,948.8
2023-06-30T16:38:52.689Z,948.74
2023-06-30T16:43:53.898Z,948.69
2023-06-30T16:48:55.353Z,948.7
2023-06-30T16:53:57.522Z,948.68
2023-06-30T16:58:59.507Z,948.73
2023-06-30T17:04:00.972Z,948.75
2023-06-30T17:09:02.371Z,948.72
2023-06-30T17:14:03.948Z,948.81
2023-06-30T17:19:05.860Z,948.78
2023-06-30T17:24:07.687Z,948.82
2023-06-30T17:29:09.568Z,948.8
2023-06-30T17:34:10.892Z,948.88
2023-06-30T17:39:12.851Z,948.89
2023-06-30T17:44:14.280Z,948.88
2023-06-30T17:49:16.391Z,948.93
2023-06-30T17:54:18.953Z,948.96
2023-06-30T17:59:19.290Z,949
2023-06-30T18:04:20.695Z,949.06
2023-06-30T18:09:22.083Z,949.12
2023-06-30T18:14:24.214Z,949.14
2023-06-30T18:19:26.129Z,949.16
2023-06-30T18:24:33.635Z,949.15
2023-06-30T18:29:35.708Z,949.18
2023-06-30T18:34:37.531Z,949.22
2023-06-30T18:39:39.433Z,949.32
2023-06-30T18:44:41.223Z,949.34
2023-06-30T18:49:42.719Z,949.32
2023-06-30T18:54:44.424Z,949.33
2023-06-30T18:59:45.902Z,949.37
2023-06-30T19:04:48.237Z,949.46
2023-06-30T19:09:49.455Z,949.49
2023-06-30T19:14:51.415Z,949.57
2023-06-30T19:19:53.123Z,949.55
2023-06-30T19:24:54.382Z,949.52
2023-06-30T19:29:55.956Z,949.61
2023-06-30T19:34:57.848Z,949.59
2023-06-30T19:39:59.940Z,949.62
2023-06-30T19:45:01.387Z,949.63
2023-06-30T19:50:03.404Z,949.65
2023-06-30T19:55:13.526Z,949.68
2023-06-30T20:00:07.540Z,949.72
2023-06-30T20:05:08.834Z,949.71
2023-06-30T20:10:10.529Z,949.76
2023-06-30T20:15:11.937Z,949.72
2023-06-30T20:20:13.110Z,949.72
2023-06-30T20:25:15.150Z,949.7
2023-06-30T20:30:16.521Z,949.7
2023-06-30T20:35:18.006Z,949.69
2023-06-30T20:40:19.687Z,949.7
2023-06-30T20:45:21.001Z,949.76
2023-06-30T20:50:22.438Z,949.81
2023-06-30T20:55:24.437Z,949.82
2023-06-30T21:00:25.816Z,949.79
2023-06-30T21:05:27.452Z,949.8
2023-06-30T21:10:29.084Z,949.78
2023-06-30T21:15:30.946Z,949.82
2023-06-30T21:20:32.210Z,949.84
2023-06-30T21:25:34.220Z,949.8
2023-06-30T21:30:36.193Z,949.86
2023-06-30T21:35:38.190Z,949.87
2023-06-30T21:40:40.343Z,949.84
2023-06-30T21:45:42.636Z,949.88
2023-06-30T21:50:44.275Z,949.82
2023-06-30T21:55:46.174Z,949.81
2023-06-30T22:00:48.376Z,949.79
2023-06-30T22:05:50.215Z,949.81
2023-06-30T22:10:52.266Z,949.77
2023-06-30T22:15:53.693Z,949.77
2023-06-30T22:20:55.273Z,949.82
2023-06-30T22:25:56.988Z,949.84
2023-06-30T22:30:58.284Z,949.95
2023-06-30T22:36:00.015Z,949.94
2023-06-30T22:41:02.161Z,949.94
2023-06-30T22:46:03.472Z,949.94
2023-06-30T22:51:04.739Z,949.93
2023-06-30T22:56:06.415Z,949.97
2023-06-30T23:01:08.601Z,949.87
2023-06-30T23:06:09.881Z,949.84
2023-06-30T23:11:11.467Z,949.89
2023-06-30T23:16:12.687Z,949.86
2023-06-30T23:21:14.659Z,949.87
2023-06-30T23:26:15.931Z,949.88
2023-06-30T23:31:17.153Z,949.89
2023-06-30T23:36:18.737Z,949.9
2023-06-30T23:41:20.485Z,949.89
2023-06-30T23:46:22.468Z,949.88
2023-06-30T23:51:23.701Z,949.83
2023-06-30T23:56:24.970Z,949.78
